Terminal Aerodrome Forecast
Issued by NWS Wilmington, OH

Current Version | Previous Version | Graphics & Text | Print | Product List | Glossary On
Versions: 1 2 3 4 5 6 7 8 9 10 11 12 13 14 15 16 17 18 19 20 21 22 23 24 25 26 27 28 29
946
FTUS41 KILN 131743 AAC
TAFILN
TAF AMD
KILN 131743Z 1318/1418 04009KT P6SM SCT015 BKN150
      TEMPO 1318/1319 BKN015
     FM140000 05007KT P6SM VCSH OVC040
     FM140500 06007KT 5SM -FZRA BR SCT015 OVC025
     FM140800 06006KT 5SM BR VCSH OVC010
     FM141100 07005KT 3SM BR VCSH OVC007=

USA.gov is the U.S. government's official web portal to all federal, state and local government web resources and services.